Time;durP1;ratioP1;P1;durP2;ratioP2;P2;SDS_P1;SDS_P2;PMS_P1;PMS_P2;Temp;Humidity;BMP_temperature;BMP_pressure;BME280_temperature;BME280_humidity;BME280_pressure;Samples;Min_cycle;Max_cycle;Signal;HPM_P1;HPM_P2
2022/06/04 00:00:52;;;;;;;;;25.00;23.50;;;;;20.70;65.17;100732.81;5062126;28;46036;-78
2022/06/04 00:03:18;;;;;;;;;25.25;23.75;;;;;20.77;65.11;100747.97;5044523;28;45679;-79
2022/06/04 00:05:48;;;;;;;;;24.50;23.25;;;;;20.74;65.12;100748.28;5063151;28;45526;-80
2022/06/04 00:08:14;;;;;;;;;24.50;24.00;;;;;20.62;65.39;100732.88;5062589;28;46626;-80
2022/06/04 00:16:48;;;;;;;;;24.50;22.50;;;;;20.65;64.94;100735.19;5055822;28;45742;-78
2022/06/04 00:19:14;;;;;;;;;27.75;25.00;;;;;20.68;64.88;100748.13;5055951;28;46274;-80
2022/06/04 00:21:40;;;;;;;;;31.00;26.75;;;;;20.64;65.37;100734.34;5056612;28;45936;-80
2022/06/04 00:24:06;;;;;;;;;22.50;22.25;;;;;20.67;65.11;100731.34;5061630;28;45561;-79
2022/06/04 00:26:32;;;;;;;;;26.75;25.25;;;;;20.67;65.02;100743.84;5062454;28;45841;-80
2022/06/04 00:28:57;;;;;;;;;24.25;24.00;;;;;20.61;65.32;100742.69;5062279;28;45592;-81
2022/06/04 00:31:23;;;;;;;;;26.75;23.75;;;;;20.59;65.38;100734.03;5062117;28;45738;-80
2022/06/04 00:33:48;;;;;;;;;27.00;22.00;;;;;20.52;65.24;100739.19;5039246;28;45598;-80
2022/06/04 00:36:14;;;;;;;;;24.25;23.25;;;;;20.58;65.10;100756.31;5058077;28;45464;-80
2022/06/04 00:38:40;;;;;;;;;29.50;27.25;;;;;20.44;65.41;100725.91;5061767;28;46529;-79
2022/06/04 00:41:40;;;;;;;;;28.50;22.75;;;;;20.56;65.66;100744.19;5062196;28;46133;-80
2022/06/04 00:44:08;;;;;;;;;28.00;27.25;;;;;20.53;65.55;100740.03;5061884;28;45685;-79
2022/06/04 00:46:39;;;;;;;;;27.50;26.00;;;;;20.50;65.65;100735.91;5062482;28;45493;-79
2022/06/04 00:49:05;;;;;;;;;28.50;25.50;;;;;20.47;65.54;100724.72;5061669;28;46753;-80
2022/06/04 00:51:31;;;;;;;;;26.75;26.25;;;;;20.37;65.67;100716.94;5060223;28;46006;-80
2022/06/04 00:53:58;;;;;;;;;26.00;23.25;;;;;20.42;65.37;100711.94;5059501;28;45745;-79
2022/06/04 00:56:52;;;;;;;;;31.50;27.25;;;;;20.44;65.73;100706.44;5061889;28;45507;-80
2022/06/04 00:59:49;;;;;;;;;25.50;24.25;;;;;20.44;65.60;100703.78;5058884;28;45688;-80
2022/06/04 01:02:38;;;;;;;;;22.50;22.00;;;;;20.43;65.65;100712.78;5038147;28;48018;-79
2022/06/04 01:05:19;;;;;;;;;29.50;27.00;;;;;20.41;65.84;100710.28;5056326;28;45598;-80
2022/06/04 01:08:17;;;;;;;;;23.50;22.50;;;;;20.39;65.91;100722.09;5056538;28;45417;-80
2022/06/04 01:10:57;;;;;;;;;23.25;21.75;;;;;20.33;66.27;100712.97;4993703;28;45791;-81
2022/06/04 01:13:49;;;;;;;;;26.00;25.00;;;;;20.32;66.00;100713.13;4993660;28;46463;-79
2022/06/04 01:16:26;;;;;;;;;26.75;24.25;;;;;20.29;66.17;100708.13;4934168;28;45920;-80
2022/06/04 01:19:29;;;;;;;;;25.50;25.50;;;;;20.27;65.99;100707.44;4934544;28;45584;-79
2022/06/04 01:22:22;;;;;;;;;24.00;23.00;;;;;20.24;66.30;100708.63;4934032;28;47517;-78
2022/06/04 01:24:59;;;;;;;;;24.75;23.50;;;;;20.22;66.03;100699.97;4934348;28;46081;-80
2022/06/04 01:30:49;;;;;;;;;26.00;25.00;;;;;20.21;66.29;100676.19;4934201;28;45659;-79
2022/06/04 01:33:37;;;;;;;;;23.50;23.25;;;;;20.17;66.36;100666.91;4934219;28;46256;-80
2022/06/04 01:36:17;;;;;;;;;28.75;26.25;;;;;20.15;66.11;100682.19;4934015;28;46562;-80
2022/06/04 01:38:57;;;;;;;;;23.25;23.25;;;;;20.17;65.84;100681.03;4934122;28;45835;-80
2022/06/04 01:41:41;;;;;;;;;24.75;24.75;;;;;20.17;65.93;100675.72;4934167;28;45821;-80
2022/06/04 01:44:42;;;;;;;;;25.25;24.50;;;;;20.16;65.83;100666.06;4933741;28;45673;-79
2022/06/04 01:47:07;;;;;;;;;28.75;26.00;;;;;20.16;66.25;100678.53;4933335;28;46254;-78
2022/06/04 01:49:45;;;;;;;;;27.50;26.50;;;;;20.21;65.95;100668.22;4953389;28;45772;-79
2022/06/04 01:52:17;;;;;;;;;23.00;22.75;;;;;20.22;65.86;100669.88;4963859;28;45591;-80
2022/06/04 01:54:57;;;;;;;;;23.75;23.50;;;;;20.15;65.65;100653.75;5034474;28;45723;-80
2022/06/04 01:57:38;;;;;;;;;27.00;25.00;;;;;20.15;65.47;100651.09;5032539;28;46318;-80
2022/06/04 02:00:16;;;;;;;;;27.00;24.00;;;;;20.26;65.55;100676.50;5032061;28;45806;-79
2022/06/04 02:03:01;;;;;;;;;25.25;25.00;;;;;20.22;65.04;100656.56;5032274;28;45603;-81
2022/06/04 02:05:45;;;;;;;;;25.25;23.00;;;;;20.28;65.41;100671.88;5031824;28;45688;-82
2022/06/04 02:08:15;;;;;;;;;26.25;24.50;;;;;20.24;65.42;100658.09;5015123;28;48333;-79
2022/06/04 02:10:53;;;;;;;;;24.75;23.25;;;;;20.32;65.56;100667.88;5031957;28;45793;-81
2022/06/04 02:13:18;;;;;;;;;24.75;24.00;;;;;20.19;65.32;100655.06;5031986;28;45684;-79
2022/06/04 02:16:00;;;;;;;;;23.75;21.00;;;;;20.30;65.34;100676.00;5031564;28;45700;-80
2022/06/04 02:18:25;;;;;;;;;25.25;24.00;;;;;20.28;64.95;100674.53;5031582;28;45647;-81
2022/06/04 02:20:51;;;;;;;;;19.00;19.00;;;;;20.29;65.32;100681.50;5040261;28;45693;-80
2022/06/04 02:23:18;;;;;;;;;23.00;21.50;;;;;20.21;65.21;100662.88;5054047;28;45630;-80
2022/06/04 02:25:43;;;;;;;;;24.00;23.25;;;;;20.31;65.02;100675.03;5053928;28;45550;-79
2022/06/04 02:28:10;;;;;;;;;26.00;26.00;;;;;20.25;65.35;100657.06;5053877;28;45597;-80
2022/06/04 02:31:13;;;;;;;;;24.00;23.00;;;;;20.30;65.69;100665.34;5053752;28;45745;-80
2022/06/04 02:33:55;;;;;;;;;23.50;22.00;;;;;20.23;65.71;100660.91;5053947;28;45643;-81
2022/06/04 02:36:46;;;;;;;;;20.25;19.25;;;;;20.26;65.65;100663.22;5053437;28;45731;-81
2022/06/04 02:39:27;;;;;;;;;24.25;23.00;;;;;20.23;65.64;100664.41;5053012;28;46198;-81
2022/06/04 02:45:38;;;;;;;;;25.75;23.75;;;;;20.19;65.69;100662.25;5053541;28;45467;-80
2022/06/04 02:48:15;;;;;;;;;23.25;20.50;;;;;20.17;65.48;100666.91;5053490;28;45577;-80
2022/06/04 02:51:02;;;;;;;;;20.75;19.75;;;;;20.16;65.68;100665.22;5053449;28;46260;-80
2022/06/04 02:53:31;;;;;;;;;27.00;24.25;;;;;20.13;65.69;100667.22;5053476;28;45838;-80
2022/06/04 02:56:19;;;;;;;;;27.00;25.75;;;;;20.12;65.86;100654.09;5054358;28;45809;-78
2022/06/04 03:02:11;;;;;;;;;24.25;22.25;;;;;20.09;65.56;100649.09;5056630;28;46018;-80
2022/06/04 03:04:44;;;;;;;;;25.50;24.25;;;;;20.07;65.67;100643.97;5056948;28;45514;-80
2022/06/04 03:07:10;;;;;;;;;22.00;22.00;;;;;20.05;65.98;100645.13;5057071;28;45590;-78
2022/06/04 03:09:38;;;;;;;;;27.25;26.50;;;;;20.02;65.58;100635.69;5056742;28;45660;-79
2022/06/04 03:12:04;;;;;;;;;26.25;23.75;;;;;20.01;65.55;100636.66;5056706;28;45983;-78
2022/06/04 03:14:30;;;;;;;;;23.25;22.00;;;;;19.91;65.61;100617.41;5056578;28;45532;-80
2022/06/04 03:16:56;;;;;;;;;24.25;22.75;;;;;19.96;65.48;100620.41;5056851;28;45681;-81
2022/06/04 03:19:21;;;;;;;;;24.00;22.00;;;;;20.03;65.61;100628.50;5056614;28;46032;-79
2022/06/04 03:21:46;;;;;;;;;23.50;21.75;;;;;19.97;65.37;100616.72;5056546;28;46594;-80
2022/06/04 03:24:13;;;;;;;;;22.00;21.50;;;;;20.04;65.58;100607.06;5056659;28;45582;-80
2022/06/04 03:26:39;;;;;;;;;23.75;22.75;;;;;20.05;65.85;100603.41;5056803;28;45662;-80
2022/06/04 03:32:26;;;;;;;;;24.00;23.00;;;;;20.06;65.23;100618.38;5056237;28;45626;-80
2022/06/04 03:34:51;;;;;;;;;23.00;21.25;;;;;20.05;65.52;100619.38;5037903;28;45473;-80
2022/06/04 03:37:17;;;;;;;;;27.00;24.00;;;;;20.06;65.58;100621.03;5056333;28;45681;-80
2022/06/04 03:39:43;;;;;;;;;22.00;21.75;;;;;20.07;65.84;100617.38;5056354;28;45626;-80
2022/06/04 03:42:08;;;;;;;;;24.75;22.50;;;;;20.06;65.37;100621.03;5056268;28;45676;-80
2022/06/04 03:47:56;;;;;;;;;30.50;26.00;;;;;20.11;65.45;100615.19;5056184;28;45567;-80
2022/06/04 03:50:25;;;;;;;;;22.50;20.25;;;;;20.08;65.56;100608.38;5055937;28;46733;-80
2022/06/04 03:52:51;;;;;;;;;23.50;22.25;;;;;20.10;65.76;100627.66;5056061;28;45675;-79
2022/06/04 03:55:18;;;;;;;;;21.25;20.50;;;;;20.13;65.30;100645.94;5037687;28;46033;-80
2022/06/04 03:57:49;;;;;;;;;25.75;22.25;;;;;20.16;65.29;100641.28;5056336;28;45579;-79
2022/06/04 04:00:19;;;;;;;;;19.25;19.00;;;;;20.17;65.11;100643.78;5055728;28;46430;-79
2022/06/04 04:02:56;;;;;;;;;20.50;19.25;;;;;20.20;65.18;100639.94;5055906;28;46128;-79
2022/06/04 04:05:25;;;;;;;;;19.75;17.75;;;;;20.20;65.68;100643.44;5034450;28;45597;-81
2022/06/04 04:07:51;;;;;;;;;18.75;17.50;;;;;20.17;65.04;100645.63;5055421;28;45726;-80
2022/06/04 04:10:17;;;;;;;;;18.50;18.00;;;;;20.19;65.33;100646.28;5055767;28;46557;-79
2022/06/04 04:12:43;;;;;;;;;18.50;18.50;;;;;20.15;65.23;100648.44;5055801;28;46529;-80
2022/06/04 04:15:09;;;;;;;;;17.75;17.00;;;;;20.17;65.44;100654.44;5055906;28;45393;-79
2022/06/04 04:17:39;;;;;;;;;18.00;16.00;;;;;20.21;65.55;100677.03;5055998;28;45611;-80
2022/06/04 04:20:09;;;;;;;;;18.50;18.25;;;;;20.23;65.14;100685.69;5055637;28;45639;-80
2022/06/04 04:22:35;;;;;;;;;17.25;16.50;;;;;20.24;65.08;100699.81;5038254;28;45901;-79
2022/06/04 04:25:01;;;;;;;;;18.75;18.75;;;;;20.25;65.32;100714.75;5055643;28;45461;-78
2022/06/04 04:27:26;;;;;;;;;19.50;18.00;;;;;20.25;65.30;100733.38;5037649;28;45679;-80
2022/06/04 04:33:13;;;;;;;;;16.00;16.00;;;;;20.26;64.87;100729.72;5055276;28;45738;-81
2022/06/04 04:35:39;;;;;;;;;18.50;17.00;;;;;20.26;64.90;100730.56;5055463;28;45519;-80
2022/06/04 04:38:05;;;;;;;;;15.00;14.50;;;;;20.23;65.08;100730.09;5036772;28;45867;-80
2022/06/04 04:40:31;;;;;;;;;17.25;16.25;;;;;20.27;64.99;100740.22;5055331;28;46498;-79
2022/06/04 04:42:58;;;;;;;;;18.00;16.75;;;;;20.23;64.99;100733.56;5055298;28;45481;-79
2022/06/04 04:45:26;;;;;;;;;17.25;16.25;;;;;20.27;65.07;100750.03;5055345;28;45781;-81
2022/06/04 04:47:52;;;;;;;;;18.00;16.50;;;;;20.22;65.25;100753.19;5055545;28;45644;-79
2022/06/04 04:50:24;;;;;;;;;18.00;16.75;;;;;20.29;64.86;100750.69;5055124;28;46365;-79
2022/06/04 04:52:51;;;;;;;;;17.50;17.50;;;;;20.29;65.15;100748.03;5053295;28;46582;-80
2022/06/04 04:55:16;;;;;;;;;18.00;16.75;;;;;20.22;65.09;100736.41;5055125;28;45664;-79
2022/06/04 04:57:42;;;;;;;;;17.75;17.25;;;;;20.29;65.12;100748.88;5055423;28;45481;-80
2022/06/04 05:03:30;;;;;;;;;18.00;17.00;;;;;20.28;64.93;100736.56;5054539;28;45678;-80
2022/06/04 05:06:00;;;;;;;;;20.00;19.00;;;;;20.28;65.55;100730.41;5055126;28;45716;-79
2022/06/04 05:08:26;;;;;;;;;17.25;17.25;;;;;20.24;64.92;100732.59;5054970;28;45471;-80
2022/06/04 05:10:52;;;;;;;;;17.75;17.25;;;;;20.27;64.89;100728.75;5054884;28;45685;-81
2022/06/04 05:13:19;;;;;;;;;20.25;18.75;;;;;20.23;65.10;100709.63;5036432;28;47470;-80
2022/06/04 05:15:44;;;;;;;;;20.75;19.00;;;;;20.24;65.24;100729.91;5054953;28;45692;-80
2022/06/04 05:18:10;;;;;;;;;18.25;18.25;;;;;20.32;65.00;100742.41;5054928;28;45564;-81
2022/06/04 05:20:36;;;;;;;;;19.25;18.50;;;;;20.28;65.47;100736.56;5053590;28;46654;-80
2022/06/04 05:23:01;;;;;;;;;18.00;17.25;;;;;20.32;65.40;100742.41;5054687;28;46063;-80
2022/06/04 05:25:27;;;;;;;;;18.50;16.50;;;;;20.18;65.41;100698.66;5054580;28;45642;-80
2022/06/04 05:27:52;;;;;;;;;19.50;18.75;;;;;20.25;65.32;100685.50;5036414;28;46052;-80
2022/06/04 05:33:40;;;;;;;;;19.75;16.75;;;;;20.30;65.03;100685.81;5054506;28;46120;-81
2022/06/04 05:36:06;;;;;;;;;16.50;16.50;;;;;20.34;65.14;100680.03;5054582;28;45584;-79
2022/06/04 05:38:34;;;;;;;;;18.25;17.00;;;;;20.38;65.49;100668.03;5054341;28;45893;-80
2022/06/04 05:41:08;;;;;;;;;18.50;18.25;;;;;20.40;65.38;100674.03;5054452;28;46596;-80
2022/06/04 05:43:34;;;;;;;;;16.00;15.25;;;;;20.43;65.47;100684.31;5054545;28;45954;-80
2022/06/04 05:46:02;;;;;;;;;18.25;17.50;;;;;20.47;64.90;100693.63;5054373;28;45447;-80
2022/06/04 05:48:28;;;;;;;;;18.00;17.00;;;;;20.49;64.89;100690.81;5054392;28;45543;-81
2022/06/04 05:50:55;;;;;;;;;17.25;16.50;;;;;20.56;64.99;100702.44;5054215;28;45680;-78
2022/06/04 05:53:21;;;;;;;;;18.75;16.75;;;;;20.57;65.13;100709.41;5054164;28;45594;-79
2022/06/04 05:55:47;;;;;;;;;17.50;17.00;;;;;20.57;64.93;100720.03;5032547;28;45702;-78
2022/06/04 05:58:12;;;;;;;;;23.25;18.50;;;;;20.52;64.85;100712.56;5049959;28;45516;-79
2022/06/04 06:00:38;;;;;;;;;18.75;15.50;;;;;20.59;65.11;100727.88;5054083;28;45582;-80
2022/06/04 06:03:03;;;;;;;;;17.75;16.00;;;;;20.64;64.78;100747.66;5053989;28;46474;-79
2022/06/04 06:05:30;;;;;;;;;16.25;15.75;;;;;20.62;64.70;100765.63;5069395;28;45593;-80
2022/06/04 06:07:55;;;;;;;;;15.50;15.50;;;;;20.65;64.91;100797.25;5054425;28;45516;-80
2022/06/04 06:10:20;;;;;;;;;19.00;18.25;;;;;20.56;65.10;100800.09;5054083;28;45588;-81
2022/06/04 06:12:46;;;;;;;;;20.25;19.25;;;;;20.48;65.20;100747.69;5035961;28;46530;-81
2022/06/04 06:18:34;;;;;;;;;20.75;18.50;;;;;20.51;64.86;100764.16;5053642;28;45590;-79
2022/06/04 06:21:12;;;;;;;;;21.75;19.75;;;;;20.52;65.28;100788.94;5053769;28;45681;-79
2022/06/04 06:23:38;;;;;;;;;20.00;19.00;;;;;20.45;64.98;100823.41;5053854;28;46319;-81
2022/06/04 06:26:09;;;;;;;;;19.75;19.25;;;;;20.40;65.40;100831.06;5054101;28;45706;-80
2022/06/04 06:28:36;;;;;;;;;18.00;17.25;;;;;20.43;65.01;100830.72;5053842;28;45586;-80
2022/06/04 06:31:02;;;;;;;;;22.00;19.00;;;;;20.35;65.16;100819.25;5053161;28;45586;-81
2022/06/04 06:33:28;;;;;;;;;19.75;17.75;;;;;20.33;65.38;100803.44;5053748;28;46260;-80
2022/06/04 06:36:01;;;;;;;;;20.50;16.50;;;;;20.44;65.02;100805.78;5053664;28;45882;-80
2022/06/04 06:38:27;;;;;;;;;19.50;18.75;;;;;20.39;65.17;100796.63;5053424;28;45528;-79
2022/06/04 06:40:55;;;;;;;;;21.00;18.25;;;;;20.43;65.05;100805.94;5053654;28;45602;-79
2022/06/04 06:43:21;;;;;;;;;20.50;19.75;;;;;20.45;64.91;100814.59;5053598;28;46091;-80
2022/06/04 06:49:17;;;;;;;;;22.00;20.50;;;;;20.56;64.93;100842.69;5053402;28;45575;-80
2022/06/04 06:51:53;;;;;;;;;21.75;19.25;;;;;20.58;64.82;100830.03;5051798;28;47628;-80
2022/06/04 06:54:21;;;;;;;;;24.50;21.50;;;;;20.54;65.18;100810.91;5053397;28;46178;-79
2022/06/04 06:56:49;;;;;;;;;23.00;20.50;;;;;20.61;64.96;100806.59;5053364;28;45694;-81
2022/06/04 06:59:14;;;;;;;;;22.50;21.75;;;;;20.55;64.95;100785.97;5053158;28;45524;-80
2022/06/04 07:01:42;;;;;;;;;21.50;20.50;;;;;20.57;64.62;100783.94;5053336;28;46508;-79
2022/06/04 07:04:08;;;;;;;;;20.50;19.50;;;;;20.61;64.69;100781.78;5053409;28;46089;-81
2022/06/04 07:06:35;;;;;;;;;21.75;19.50;;;;;20.68;65.29;100782.75;5053326;28;45736;-80
2022/06/04 07:09:03;;;;;;;;;22.75;22.75;;;;;20.68;65.54;100778.25;5053482;28;45788;-82
2022/06/04 07:11:29;;;;;;;;;21.50;20.00;;;;;20.68;65.40;100777.44;5052824;28;46748;-80
2022/06/04 07:13:55;;;;;;;;;23.75;22.00;;;;;20.69;65.24;100766.63;5053216;28;46156;-81
2022/06/04 07:16:24;;;;;;;;;22.50;21.25;;;;;20.63;64.78;100759.31;5053162;28;45532;-80
2022/06/04 07:18:49;;;;;;;;;22.50;20.50;;;;;20.62;64.73;100756.84;5031359;28;45928;-80
2022/06/04 07:21:19;;;;;;;;;18.75;18.75;;;;;20.66;65.18;100751.00;5049066;28;45538;-81
2022/06/04 07:23:45;;;;;;;;;20.75;20.00;;;;;20.74;65.12;100763.44;5051584;28;47734;-81
2022/06/04 07:26:12;;;;;;;;;21.00;19.25;;;;;20.77;64.95;100790.56;5053018;28;45504;-81
2022/06/04 07:28:39;;;;;;;;;21.25;19.75;;;;;20.79;65.06;100796.53;5053190;28;45654;-80
2022/06/04 07:34:26;;;;;;;;;25.75;23.75;;;;;20.82;65.57;100822.03;5052808;28;45617;-81
2022/06/04 07:36:52;;;;;;;;;21.25;21.00;;;;;20.82;65.75;100814.88;5052629;28;45726;-81
2022/06/04 07:39:18;;;;;;;;;20.50;20.50;;;;;20.80;65.23;100806.19;5052888;28;45751;-81
2022/06/04 07:41:47;;;;;;;;;23.25;22.25;;;;;20.81;65.69;100826.50;5052744;28;45542;-80
2022/06/04 07:44:15;;;;;;;;;26.00;25.50;;;;;20.80;65.93;100832.84;5034158;28;47365;-81
2022/06/04 07:46:42;;;;;;;;;23.00;23.00;;;;;20.80;66.16;100827.50;5055990;28;45767;-80
2022/06/04 07:49:08;;;;;;;;;22.50;21.25;;;;;20.77;65.91;100809.22;5056305;28;45765;-78
2022/06/04 07:51:36;;;;;;;;;25.75;24.00;;;;;20.75;65.91;100808.53;5056064;28;45645;-79
2022/06/04 07:54:03;;;;;;;;;24.75;22.50;;;;;20.66;65.74;100795.41;5037772;28;47764;-80
2022/06/04 07:56:29;;;;;;;;;22.00;20.00;;;;;20.75;65.73;100813.03;5056125;28;45783;-80
2022/06/04 07:58:55;;;;;;;;;27.50;23.75;;;;;20.77;66.48;100816.38;5056171;28;45641;-81
2022/06/04 08:04:42;;;;;;;;;26.75;26.25;;;;;20.76;66.04;100799.56;5055923;28;45771;-78
2022/06/04 08:07:08;;;;;;;;;29.75;27.75;;;;;20.77;66.51;100790.56;5056163;28;45574;-79
2022/06/04 08:09:34;;;;;;;;;32.00;30.00;;;;;20.77;66.20;100789.75;5056065;28;45918;-82
2022/06/04 08:12:00;;;;;;;;;29.25;28.00;;;;;20.79;65.92;100795.72;5055762;28;46373;-81
2022/06/04 08:14:26;;;;;;;;;31.75;29.00;;;;;20.80;66.61;100789.38;5057024;28;45682;-82
2022/06/04 08:16:58;;;;;;;;;30.00;27.75;;;;;20.82;66.51;100792.72;5055811;28;45633;-81
2022/06/04 08:19:26;;;;;;;;;33.00;30.50;;;;;20.80;66.55;100797.38;5056063;28;45685;-81
2022/06/04 08:21:53;;;;;;;;;32.25;30.50;;;;;20.83;66.00;100810.38;5055609;28;46611;-81
2022/06/04 08:24:20;;;;;;;;;31.50;29.50;;;;;20.75;66.40;100799.72;5055987;28;46539;-80
2022/06/04 08:26:47;;;;;;;;;34.50;31.00;;;;;20.80;66.25;100813.34;5055784;28;45868;-79
2022/06/04 08:29:14;;;;;;;;;33.50;30.50;;;;;20.82;66.06;100806.03;5037635;28;45618;-79
2022/06/04 08:35:03;;;;;;;;;30.75;29.50;;;;;20.88;66.77;100813.34;5055561;28;46168;-81
2022/06/04 08:37:28;;;;;;;;;35.75;30.75;;;;;20.92;66.72;100815.50;5055425;28;45829;-81
2022/06/04 08:39:54;;;;;;;;;34.50;33.00;;;;;20.94;66.90;100818.00;5055778;28;45527;-82
2022/06/04 08:42:51;;;;;;;;;39.25;32.50;;;;;20.92;66.43;100814.66;5055255;28;46502;-81
2022/06/04 08:45:16;;;;;;;;;33.75;31.50;;;;;20.98;66.20;100808.66;4973379;28;46343;-81
2022/06/04 08:47:53;;;;;;;;;31.25;30.00;;;;;20.94;67.25;100797.50;4973813;28;45837;-81
2022/06/04 08:50:24;;;;;;;;;34.00;32.00;;;;;21.00;66.56;100808.50;4957272;28;45823;-82
2022/06/04 08:52:54;;;;;;;;;34.00;30.75;;;;;21.05;66.73;100814.13;4973537;28;45625;-81
2022/06/04 08:58:12;;;;;;;;;36.75;33.75;;;;;21.14;66.25;100832.63;4973325;28;45573;-81
2022/06/04 09:00:43;;;;;;;;;37.75;33.75;;;;;21.17;66.05;100836.75;4973859;28;45815;-80
2022/06/04 09:03:18;;;;;;;;;36.50;32.50;;;;;21.20;65.89;100828.44;4973366;28;46491;-79
2022/06/04 09:06:19;;;;;;;;;33.25;31.25;;;;;21.23;66.17;100834.25;4973505;28;45547;-81
2022/06/04 09:08:56;;;;;;;;;37.00;34.25;;;;;21.25;65.92;100832.25;4953925;28;45715;-79
2022/06/04 09:11:55;;;;;;;;;35.75;33.00;;;;;21.28;65.75;100834.53;4954014;28;45581;-79
2022/06/04 09:17:54;;;;;;;;;30.00;29.75;;;;;21.38;65.60;100842.34;4953767;28;46124;-82
2022/06/04 09:20:28;;;;;;;;;29.00;28.50;;;;;21.41;65.22;100842.00;4969797;28;45685;-80
2022/06/04 09:23:00;;;;;;;;;31.50;29.75;;;;;21.41;64.89;100842.00;4985140;28;45563;-81
2022/06/04 09:25:34;;;;;;;;;30.00;29.00;;;;;21.40;64.99;100826.19;4992831;28;46702;-80
2022/06/04 09:27:59;;;;;;;;;31.00;28.50;;;;;21.55;64.82;100843.94;4992836;28;46124;-78
2022/06/04 09:33:56;;;;;;;;;29.50;28.25;;;;;21.64;63.98;100848.22;4992882;28;45588;-81
2022/06/04 09:36:38;;;;;;;;;23.25;21.75;;;;;21.64;63.51;100831.41;4992568;28;45801;-82
2022/06/04 09:39:21;;;;;;;;;23.50;22.25;;;;;21.63;63.23;100829.72;4992716;28;45976;-80
2022/06/04 09:41:59;;;;;;;;;17.00;16.50;;;;;21.73;62.79;100835.66;4992430;28;45715;-83
2022/06/04 09:44:26;;;;;;;;;23.25;21.75;;;;;21.74;62.82;100830.16;5006803;28;45643;-81
2022/06/04 09:50:21;;;;;;;;;20.50;19.50;;;;;21.96;62.84;100835.72;5054203;28;46070;-82
2022/06/04 09:52:59;;;;;;;;;24.50;22.75;;;;;22.03;62.54;100836.66;5054428;28;45633;-81
2022/06/04 09:55:26;;;;;;;;;21.00;19.50;;;;;22.09;61.84;100838.63;5054463;28;45507;-84
2022/06/04 09:57:58;;;;;;;;;19.00;16.50;;;;;22.14;61.65;100838.91;5054802;28;45630;-80
2022/06/04 10:00:27;;;;;;;;;18.50;17.00;;;;;22.14;61.26;100834.41;5054253;28;46101;-82
2022/06/04 10:02:59;;;;;;;;;21.00;19.25;;;;;22.24;60.94;100839.50;5054184;28;45809;-82
2022/06/04 10:05:28;;;;;;;;;20.25;18.75;;;;;22.22;60.63;100825.53;5052364;28;45477;-80
2022/06/04 10:07:54;;;;;;;;;17.50;15.50;;;;;22.36;60.62;100837.25;5054284;28;45606;-80
2022/06/04 10:10:33;;;;;;;;;18.00;17.50;;;;;22.47;60.91;100839.50;5054181;28;45890;-81
2022/06/04 10:15:53;;;;;;;;;20.50;18.00;;;;;22.58;60.63;100845.22;5054071;28;45539;-81
2022/06/04 10:18:31;;;;;;;;;15.50;15.50;;;;;22.66;60.22;100848.84;5053965;28;45557;-82
2022/06/04 10:21:00;;;;;;;;;16.50;15.75;;;;;22.65;59.84;100834.66;5053979;28;46221;-82
2022/06/04 10:23:27;;;;;;;;;18.00;16.75;;;;;22.79;59.88;100833.03;5054349;28;45646;-81
2022/06/04 10:26:08;;;;;;;;;20.25;19.25;;;;;22.85;58.87;100830.47;5054251;28;45506;-80
2022/06/04 10:28:51;;;;;;;;;19.50;18.25;;;;;22.91;58.97;100831.56;5054239;28;45578;-79
2022/06/04 10:31:33;;;;;;;;;13.25;13.25;;;;;22.94;58.50;100831.22;5053877;28;46494;-79
2022/06/04 10:34:20;;;;;;;;;18.25;17.25;;;;;23.00;58.21;100835.81;5053942;28;45512;-82
2022/06/04 10:36:57;;;;;;;;;14.00;13.75;;;;;23.06;58.10;100827.06;5050912;28;45878;-82
2022/06/04 10:39:37;;;;;;;;;12.75;12.00;;;;;23.12;58.41;100823.66;5015600;28;47524;-81
2022/06/04 10:42:14;;;;;;;;;15.75;15.50;;;;;23.21;58.06;100833.22;5033938;28;45988;-81
2022/06/04 10:44:59;;;;;;;;;17.25;16.00;;;;;23.24;57.60;100811.47;5033975;28;45586;-82
2022/06/04 10:47:41;;;;;;;;;16.00;14.00;;;;;23.32;57.94;100819.38;5015920;28;45567;-81
2022/06/04 10:50:24;;;;;;;;;13.75;13.25;;;;;23.33;57.65;100805.00;5015257;28;47410;-81
2022/06/04 10:52:56;;;;;;;;;14.75;13.25;;;;;23.54;57.21;100817.63;5033374;28;46157;-81
2022/06/04 10:55:30;;;;;;;;;14.00;13.75;;;;;23.60;57.04;100821.41;5033426;28;45719;-80
2022/06/04 10:58:41;;;;;;;;;14.00;14.00;;;;;23.66;56.84;100810.78;5033599;28;45516;-80
2022/06/04 11:04:43;;;;;;;;;13.00;11.75;;;;;23.83;56.56;100814.88;4971738;28;45586;-80
2022/06/04 11:07:26;;;;;;;;;13.50;12.00;;;;;23.91;56.71;100803.22;4972171;28;45819;-81
2022/06/04 11:09:53;;;;;;;;;12.50;12.25;;;;;23.97;55.95;100802.44;4972038;28;45868;-81
2022/06/04 11:12:42;;;;;;;;;14.00;12.75;;;;;24.05;56.15;100815.72;4971559;28;46386;-81
2022/06/04 11:22:21;;;;;;;;;12.25;12.00;;;;;24.27;55.33;100791.63;4897840;28;45702;-81
2022/06/04 11:24:56;;;;;;;;;16.25;15.75;;;;;24.32;55.40;100797.22;4897727;29;46521;-82
2022/06/04 11:27:33;;;;;;;;;19.00;17.00;;;;;24.39;55.03;100785.56;4897815;29;45916;-79
2022/06/04 11:30:01;;;;;;;;;14.00;13.75;;;;;24.48;54.73;100791.59;4897489;29;45757;-80
2022/06/04 11:32:52;;;;;;;;;11.25;11.25;;;;;24.57;54.56;100790.41;4897818;29;45596;-80
2022/06/04 11:35:33;;;;;;;;;16.00;14.25;;;;;24.65;53.96;100791.09;4897698;29;45625;-82
2022/06/04 11:38:25;;;;;;;;;15.75;15.00;;;;;24.69;53.89;100783.50;4919424;28;45795;-82
2022/06/04 11:41:06;;;;;;;;;13.00;13.00;;;;;24.73;53.79;100787.41;4935760;28;45579;-80
2022/06/04 11:43:53;;;;;;;;;14.00;12.50;;;;;24.81;54.02;100787.28;4936283;28;45799;-81
2022/06/04 11:50:05;;;;;;;;;13.00;12.25;;;;;24.94;52.95;100782.00;4935776;28;45889;-80
2022/06/04 11:52:34;;;;;;;;;12.00;11.00;;;;;24.97;53.11;100773.59;4935825;28;45689;-82
2022/06/04 11:55:12;;;;;;;;;13.25;13.00;;;;;25.04;52.72;100774.47;4974962;28;45921;-81
2022/06/04 11:58:12;;;;;;;;;11.50;11.50;;;;;25.13;52.84;100771.59;5017863;28;48279;-79
2022/06/04 12:00:41;;;;;;;;;11.50;10.00;;;;;25.18;51.94;100774.50;5035875;28;46003;-79
2022/06/04 12:07:18;;;;;;;;;12.25;10.00;;;;;25.33;52.09;100778.69;5036100;28;45845;-80
2022/06/04 12:09:57;;;;;;;;;11.50;9.75;;;;;25.41;51.81;100780.38;4973698;28;46569;-80
2022/06/04 12:12:34;;;;;;;;;13.00;9.00;;;;;25.46;52.04;100778.75;4974106;28;46087;-82
2022/06/04 12:15:17;;;;;;;;;10.00;9.00;;;;;25.50;50.77;100771.09;4974614;28;45476;-80
2022/06/04 12:18:17;;;;;;;;;8.00;8.00;;;;;25.61;49.85;100772.41;4974489;28;45566;-82
2022/06/04 12:26:30;;;;;;;;;8.25;8.25;;;;;25.81;50.27;100776.78;4935246;28;45822;-80
2022/06/04 12:28:57;;;;;;;;;10.00;9.25;;;;;25.81;49.96;100757.97;4935001;28;45753;-79
2022/06/04 12:31:38;;;;;;;;;10.00;9.50;;;;;25.97;49.95;100770.19;4934973;28;46705;-82
2022/06/04 12:34:20;;;;;;;;;11.00;8.50;;;;;26.06;49.70;100765.44;4935148;28;46515;-81
2022/06/04 12:36:52;;;;;;;;;8.50;8.50;;;;;26.14;49.82;100767.91;4938002;28;45792;-81
2022/06/04 12:39:34;;;;;;;;;7.50;7.25;;;;;26.24;49.57;100771.88;4954568;28;45772;-80
2022/06/04 12:42:19;;;;;;;;;8.00;7.00;;;;;26.35;49.47;100773.09;4954924;28;46596;-81
2022/06/04 12:45:03;;;;;;;;;9.00;9.00;;;;;26.40;48.67;100759.88;4954246;28;45920;-79
2022/06/04 12:47:32;;;;;;;;;7.25;7.25;;;;;26.49;48.55;100747.06;4937786;28;45712;-80
2022/06/04 12:50:06;;;;;;;;;7.00;6.00;;;;;26.60;48.13;100763.38;4954420;28;45735;-81
2022/06/04 12:52:38;;;;;;;;;6.00;5.50;;;;;26.71;47.76;100760.06;4937605;28;48762;-80
2022/06/04 12:55:07;;;;;;;;;5.00;5.00;;;;;26.84;47.64;100761.84;4953887;28;46395;-80
2022/06/04 12:57:47;;;;;;;;;3.00;3.00;;;;;26.94;46.42;100748.81;4954224;28;45783;-81
2022/06/04 13:00:22;;;;;;;;;3.25;3.25;;;;;27.03;46.46;100739.50;4989198;28;45771;-80
2022/06/04 13:02:59;;;;;;;;;4.00;4.00;;;;;27.12;46.44;100730.13;5055409;28;45714;-78